sensor_id;sensor_type;location;lat;lon;timestamp;P1;durP1;ratioP1;P2;durP2;ratioP2
57389;SDS011;43217;52.694;6.214;2022-09-27T00:00:10;3.42;;;0.88;;
57389;SDS011;43217;52.694;6.214;2022-09-27T00:02:36;2.92;;;0.70;;
57389;SDS011;43217;52.694;6.214;2022-09-27T00:05:02;2.95;;;1.00;;
57389;SDS011;43217;52.694;6.214;2022-09-27T00:07:28;3.70;;;0.80;;
57389;SDS011;43217;52.694;6.214;2022-09-27T00:09:53;3.75;;;0.98;;
57389;SDS011;43217;52.694;6.214;2022-09-27T00:12:19;3.92;;;0.90;;
57389;SDS011;43217;52.694;6.214;2022-09-27T00:14:45;3.95;;;1.00;;
57389;SDS011;43217;52.694;6.214;2022-09-27T00:17:10;4.05;;;1.05;;
57389;SDS011;43217;52.694;6.214;2022-09-27T00:19:36;3.85;;;1.15;;
57389;SDS011;43217;52.694;6.214;2022-09-27T00:22:01;3.67;;;0.68;;
57389;SDS011;43217;52.694;6.214;2022-09-27T00:24:27;2.75;;;0.93;;
57389;SDS011;43217;52.694;6.214;2022-09-27T00:26:53;3.13;;;0.60;;
57389;SDS011;43217;52.694;6.214;2022-09-27T00:29:19;3.05;;;0.60;;
57389;SDS011;43217;52.694;6.214;2022-09-27T00:31:45;2.13;;;0.63;;
57389;SDS011;43217;52.694;6.214;2022-09-27T00:34:18;3.85;;;1.20;;
57389;SDS011;43217;52.694;6.214;2022-09-27T00:36:45;2.00;;;0.70;;
57389;SDS011;43217;52.694;6.214;2022-09-27T00:39:11;2.38;;;0.68;;
57389;SDS011;43217;52.694;6.214;2022-09-27T00:41:37;2.85;;;0.60;;
57389;SDS011;43217;52.694;6.214;2022-09-27T00:46:55;3.47;;;0.70;;
57389;SDS011;43217;52.694;6.214;2022-09-27T00:49:30;1.65;;;0.60;;
57389;SDS011;43217;52.694;6.214;2022-09-27T00:52:04;2.78;;;0.68;;
57389;SDS011;43217;52.694;6.214;2022-09-27T00:54:35;4.00;;;0.65;;
57389;SDS011;43217;52.694;6.214;2022-09-27T00:57:04;3.85;;;0.70;;
57389;SDS011;43217;52.694;6.214;2022-09-27T00:59:40;1.95;;;0.70;;
57389;SDS011;43217;52.694;6.214;2022-09-27T01:02:12;2.40;;;0.60;;
57389;SDS011;43217;52.694;6.214;2022-09-27T01:04:38;3.83;;;0.63;;
57389;SDS011;43217;52.694;6.214;2022-09-27T01:07:04;1.70;;;0.50;;
57389;SDS011;43217;52.694;6.214;2022-09-27T01:09:31;2.92;;;0.77;;
57389;SDS011;43217;52.694;6.214;2022-09-27T01:15:02;3.08;;;0.68;;
57389;SDS011;43217;52.694;6.214;2022-09-27T01:23:17;3.00;;;0.80;;
57389;SDS011;43217;52.694;6.214;2022-09-27T01:28:46;5.28;;;1.10;;
57389;SDS011;43217;52.694;6.214;2022-09-27T01:31:21;5.35;;;0.90;;
57389;SDS011;43217;52.694;6.214;2022-09-27T01:36:30;7.13;;;0.82;;
57389;SDS011;43217;52.694;6.214;2022-09-27T01:42:28;2.25;;;0.55;;
57389;SDS011;43217;52.694;6.214;2022-09-27T01:48:14;4.78;;;0.80;;
57389;SDS011;43217;52.694;6.214;2022-09-27T01:50:54;6.18;;;0.70;;
57389;SDS011;43217;52.694;6.214;2022-09-27T01:53:55;4.22;;;0.90;;
57389;SDS011;43217;52.694;6.214;2022-09-27T01:56:33;4.70;;;0.80;;
57389;SDS011;43217;52.694;6.214;2022-09-27T02:01:47;2.60;;;0.60;;
57389;SDS011;43217;52.694;6.214;2022-09-27T02:04:18;2.85;;;0.82;;
57389;SDS011;43217;52.694;6.214;2022-09-27T02:06:49;3.17;;;1.00;;
57389;SDS011;43217;52.694;6.214;2022-09-27T02:09:25;2.65;;;0.60;;
57389;SDS011;43217;52.694;6.214;2022-09-27T02:11:58;2.92;;;0.70;;
57389;SDS011;43217;52.694;6.214;2022-09-27T02:14:37;1.67;;;0.73;;
57389;SDS011;43217;52.694;6.214;2022-09-27T02:22:49;4.40;;;0.65;;
57389;SDS011;43217;52.694;6.214;2022-09-27T02:25:27;3.45;;;1.33;;
57389;SDS011;43217;52.694;6.214;2022-09-27T02:28:04;1.55;;;0.47;;
57389;SDS011;43217;52.694;6.214;2022-09-27T02:30:54;2.17;;;0.50;;
57389;SDS011;43217;52.694;6.214;2022-09-27T02:33:29;1.80;;;0.50;;
57389;SDS011;43217;52.694;6.214;2022-09-27T02:35:58;2.30;;;0.40;;
57389;SDS011;43217;52.694;6.214;2022-09-27T02:38:24;3.08;;;0.60;;
57389;SDS011;43217;52.694;6.214;2022-09-27T02:40:50;2.30;;;0.50;;
57389;SDS011;43217;52.694;6.214;2022-09-27T02:43:16;2.10;;;0.50;;
57389;SDS011;43217;52.694;6.214;2022-09-27T03:04:02;2.50;;;0.60;;
57389;SDS011;43217;52.694;6.214;2022-09-27T03:06:29;3.10;;;0.65;;
57389;SDS011;43217;52.694;6.214;2022-09-27T03:08:56;4.28;;;0.70;;
57389;SDS011;43217;52.694;6.214;2022-09-27T03:11:22;2.38;;;0.50;;
57389;SDS011;43217;52.694;6.214;2022-09-27T03:13:48;3.13;;;0.60;;
57389;SDS011;43217;52.694;6.214;2022-09-27T03:16:13;2.55;;;0.50;;
57389;SDS011;43217;52.694;6.214;2022-09-27T03:18:40;3.33;;;0.60;;
57389;SDS011;43217;52.694;6.214;2022-09-27T03:21:06;1.50;;;0.55;;
57389;SDS011;43217;52.694;6.214;2022-09-27T03:23:32;3.45;;;0.50;;
57389;SDS011;43217;52.694;6.214;2022-09-27T03:25:57;2.60;;;0.77;;
57389;SDS011;43217;52.694;6.214;2022-09-27T03:28:23;2.45;;;0.60;;
57389;SDS011;43217;52.694;6.214;2022-09-27T03:30:49;1.95;;;0.80;;
57389;SDS011;43217;52.694;6.214;2022-09-27T03:33:15;1.98;;;0.80;;
57389;SDS011;43217;52.694;6.214;2022-09-27T03:35:41;2.80;;;0.68;;
57389;SDS011;43217;52.694;6.214;2022-09-27T03:38:07;3.30;;;0.60;;
57389;SDS011;43217;52.694;6.214;2022-09-27T03:40:33;2.70;;;0.80;;
57389;SDS011;43217;52.694;6.214;2022-09-27T03:43:00;1.85;;;0.65;;
57389;SDS011;43217;52.694;6.214;2022-09-27T03:45:26;3.35;;;0.63;;
57389;SDS011;43217;52.694;6.214;2022-09-27T03:47:51;1.13;;;0.50;;
57389;SDS011;43217;52.694;6.214;2022-09-27T03:50:17;1.98;;;0.47;;
57389;SDS011;43217;52.694;6.214;2022-09-27T03:52:43;2.58;;;0.60;;
57389;SDS011;43217;52.694;6.214;2022-09-27T03:55:09;1.40;;;0.40;;
57389;SDS011;43217;52.694;6.214;2022-09-27T03:57:36;4.00;;;0.40;;
57389;SDS011;43217;52.694;6.214;2022-09-27T04:00:02;1.35;;;0.35;;
57389;SDS011;43217;52.694;6.214;2022-09-27T04:02:29;1.17;;;0.45;;
57389;SDS011;43217;52.694;6.214;2022-09-27T04:04:54;2.40;;;0.60;;
57389;SDS011;43217;52.694;6.214;2022-09-27T04:07:20;2.33;;;0.57;;
57389;SDS011;43217;52.694;6.214;2022-09-27T04:09:47;0.98;;;0.35;;
57389;SDS011;43217;52.694;6.214;2022-09-27T04:12:13;2.17;;;0.40;;
57389;SDS011;43217;52.694;6.214;2022-09-27T04:14:38;1.65;;;0.50;;
57389;SDS011;43217;52.694;6.214;2022-09-27T04:17:04;3.35;;;0.52;;
57389;SDS011;43217;52.694;6.214;2022-09-27T04:19:29;2.67;;;0.70;;
57389;SDS011;43217;52.694;6.214;2022-09-27T04:21:55;4.38;;;0.65;;
57389;SDS011;43217;52.694;6.214;2022-09-27T04:24:21;4.07;;;0.75;;
57389;SDS011;43217;52.694;6.214;2022-09-27T04:26:46;2.05;;;0.70;;
57389;SDS011;43217;52.694;6.214;2022-09-27T04:29:13;3.33;;;0.70;;
57389;SDS011;43217;52.694;6.214;2022-09-27T04:31:39;2.40;;;0.55;;
57389;SDS011;43217;52.694;6.214;2022-09-27T04:37:27;1.95;;;0.57;;
57389;SDS011;43217;52.694;6.214;2022-09-27T04:39:52;4.30;;;0.88;;
57389;SDS011;43217;52.694;6.214;2022-09-27T04:42:18;4.80;;;0.80;;
57389;SDS011;43217;52.694;6.214;2022-09-27T04:44:44;4.10;;;0.85;;
57389;SDS011;43217;52.694;6.214;2022-09-27T04:47:09;1.20;;;0.60;;
57389;SDS011;43217;52.694;6.214;2022-09-27T04:49:35;5.15;;;0.60;;
57389;SDS011;43217;52.694;6.214;2022-09-27T04:52:01;4.43;;;1.13;;
57389;SDS011;43217;52.694;6.214;2022-09-27T04:54:27;5.35;;;0.90;;
57389;SDS011;43217;52.694;6.214;2022-09-27T04:56:54;3.30;;;0.85;;
57389;SDS011;43217;52.694;6.214;2022-09-27T04:59:19;2.35;;;0.85;;
57389;SDS011;43217;52.694;6.214;2022-09-27T05:01:45;3.00;;;0.90;;
57389;SDS011;43217;52.694;6.214;2022-09-27T05:04:11;3.75;;;1.00;;
57389;SDS011;43217;52.694;6.214;2022-09-27T05:06:37;3.72;;;1.25;;
57389;SDS011;43217;52.694;6.214;2022-09-27T05:09:02;7.65;;;1.63;;
57389;SDS011;43217;52.694;6.214;2022-09-27T05:11:28;6.13;;;1.63;;
57389;SDS011;43217;52.694;6.214;2022-09-27T05:13:54;5.65;;;1.40;;
57389;SDS011;43217;52.694;6.214;2022-09-27T05:16:19;7.03;;;1.48;;
57389;SDS011;43217;52.694;6.214;2022-09-27T05:18:45;7.63;;;1.48;;
57389;SDS011;43217;52.694;6.214;2022-09-27T05:21:14;6.32;;;1.40;;
57389;SDS011;43217;52.694;6.214;2022-09-27T05:23:40;4.75;;;1.40;;
57389;SDS011;43217;52.694;6.214;2022-09-27T05:26:22;9.00;;;1.20;;
57389;SDS011;43217;52.694;6.214;2022-09-27T05:28:48;5.72;;;1.00;;
57389;SDS011;43217;52.694;6.214;2022-09-27T05:31:13;3.15;;;0.80;;
57389;SDS011;43217;52.694;6.214;2022-09-27T05:33:41;3.22;;;0.80;;
57389;SDS011;43217;52.694;6.214;2022-09-27T05:36:07;3.40;;;1.08;;
57389;SDS011;43217;52.694;6.214;2022-09-27T05:38:33;4.30;;;1.17;;
57389;SDS011;43217;52.694;6.214;2022-09-27T05:40:59;3.90;;;0.90;;
57389;SDS011;43217;52.694;6.214;2022-09-27T05:43:25;5.15;;;1.00;;
57389;SDS011;43217;52.694;6.214;2022-09-27T05:45:51;3.10;;;1.00;;
57389;SDS011;43217;52.694;6.214;2022-09-27T05:48:17;3.15;;;0.90;;
57389;SDS011;43217;52.694;6.214;2022-09-27T05:50:43;3.40;;;0.80;;
57389;SDS011;43217;52.694;6.214;2022-09-27T05:53:09;5.57;;;1.17;;
57389;SDS011;43217;52.694;6.214;2022-09-27T05:55:35;4.53;;;1.05;;
57389;SDS011;43217;52.694;6.214;2022-09-27T05:58:03;2.15;;;0.80;;
57389;SDS011;43217;52.694;6.214;2022-09-27T06:00:30;3.35;;;0.90;;
57389;SDS011;43217;52.694;6.214;2022-09-27T06:02:57;6.80;;;1.33;;
57389;SDS011;43217;52.694;6.214;2022-09-27T06:05:25;2.72;;;0.80;;
57389;SDS011;43217;52.694;6.214;2022-09-27T06:07:57;3.83;;;1.10;;
57389;SDS011;43217;52.694;6.214;2022-09-27T06:13:06;6.55;;;3.40;;
57389;SDS011;43217;52.694;6.214;2022-09-27T06:15:38;3.97;;;1.33;;
57389;SDS011;43217;52.694;6.214;2022-09-27T06:18:08;2.30;;;0.80;;
57389;SDS011;43217;52.694;6.214;2022-09-27T06:20:37;2.80;;;0.70;;
57389;SDS011;43217;52.694;6.214;2022-09-27T06:23:08;1.88;;;0.77;;
57389;SDS011;43217;52.694;6.214;2022-09-27T06:25:36;4.22;;;1.20;;
57389;SDS011;43217;52.694;6.214;2022-09-27T06:28:02;1.60;;;0.47;;
57389;SDS011;43217;52.694;6.214;2022-09-27T06:30:29;1.52;;;0.60;;
57389;SDS011;43217;52.694;6.214;2022-09-27T06:32:56;1.38;;;0.70;;
57389;SDS011;43217;52.694;6.214;2022-09-27T06:35:24;1.88;;;0.60;;
57389;SDS011;43217;52.694;6.214;2022-09-27T06:37:53;1.15;;;0.68;;
57389;SDS011;43217;52.694;6.214;2022-09-27T06:40:19;1.92;;;0.82;;
57389;SDS011;43217;52.694;6.214;2022-09-27T06:42:48;2.20;;;0.73;;
57389;SDS011;43217;52.694;6.214;2022-09-27T06:45:14;2.65;;;0.65;;
57389;SDS011;43217;52.694;6.214;2022-09-27T06:47:40;0.82;;;0.60;;
57389;SDS011;43217;52.694;6.214;2022-09-27T06:50:06;2.08;;;0.63;;
57389;SDS011;43217;52.694;6.214;2022-09-27T06:52:32;1.80;;;0.70;;
57389;SDS011;43217;52.694;6.214;2022-09-27T06:54:59;2.28;;;0.73;;
57389;SDS011;43217;52.694;6.214;2022-09-27T06:57:25;2.40;;;0.63;;
57389;SDS011;43217;52.694;6.214;2022-09-27T07:00:10;4.03;;;1.00;;
57389;SDS011;43217;52.694;6.214;2022-09-27T07:02:48;2.42;;;0.85;;
57389;SDS011;43217;52.694;6.214;2022-09-27T07:05:14;9.20;;;6.72;;
57389;SDS011;43217;52.694;6.214;2022-09-27T07:07:41;0.80;;;0.60;;
57389;SDS011;43217;52.694;6.214;2022-09-27T07:10:10;3.38;;;0.65;;
57389;SDS011;43217;52.694;6.214;2022-09-27T07:12:48;2.00;;;0.60;;
57389;SDS011;43217;52.694;6.214;2022-09-27T07:15:14;1.30;;;0.45;;
57389;SDS011;43217;52.694;6.214;2022-09-27T07:17:40;2.42;;;0.50;;
57389;SDS011;43217;52.694;6.214;2022-09-27T07:20:06;2.72;;;0.80;;
57389;SDS011;43217;52.694;6.214;2022-09-27T07:22:38;1.75;;;0.70;;
57389;SDS011;43217;52.694;6.214;2022-09-27T07:25:05;0.93;;;0.50;;
57389;SDS011;43217;52.694;6.214;2022-09-27T07:27:31;1.88;;;0.70;;
57389;SDS011;43217;52.694;6.214;2022-09-27T07:32:24;2.88;;;1.00;;
57389;SDS011;43217;52.694;6.214;2022-09-27T07:34:50;3.88;;;0.90;;
57389;SDS011;43217;52.694;6.214;2022-09-27T07:37:16;3.88;;;1.25;;
57389;SDS011;43217;52.694;6.214;2022-09-27T07:39:42;4.78;;;0.98;;
57389;SDS011;43217;52.694;6.214;2022-09-27T07:42:08;3.03;;;0.80;;
57389;SDS011;43217;52.694;6.214;2022-09-27T07:44:33;1.50;;;0.70;;
57389;SDS011;43217;52.694;6.214;2022-09-27T07:46:59;3.65;;;0.98;;
57389;SDS011;43217;52.694;6.214;2022-09-27T07:49:25;1.98;;;0.50;;
57389;SDS011;43217;52.694;6.214;2022-09-27T07:51:50;2.13;;;0.60;;
57389;SDS011;43217;52.694;6.214;2022-09-27T07:54:16;1.88;;;0.60;;
57389;SDS011;43217;52.694;6.214;2022-09-27T07:56:43;4.95;;;0.70;;
57389;SDS011;43217;52.694;6.214;2022-09-27T07:59:09;1.48;;;0.57;;
57389;SDS011;43217;52.694;6.214;2022-09-27T08:01:35;1.27;;;0.30;;
57389;SDS011;43217;52.694;6.214;2022-09-27T08:04:01;2.45;;;0.60;;
57389;SDS011;43217;52.694;6.214;2022-09-27T08:06:26;2.03;;;0.70;;
57389;SDS011;43217;52.694;6.214;2022-09-27T08:08:53;1.65;;;0.65;;
57389;SDS011;43217;52.694;6.214;2022-09-27T08:11:19;1.00;;;0.60;;
57389;SDS011;43217;52.694;6.214;2022-09-27T08:13:46;3.47;;;0.80;;
57389;SDS011;43217;52.694;6.214;2022-09-27T08:16:15;4.28;;;0.70;;
57389;SDS011;43217;52.694;6.214;2022-09-27T08:18:41;3.25;;;0.68;;
57389;SDS011;43217;52.694;6.214;2022-09-27T08:21:07;1.00;;;0.50;;
57389;SDS011;43217;52.694;6.214;2022-09-27T08:23:33;2.67;;;0.90;;
57389;SDS011;43217;52.694;6.214;2022-09-27T08:25:58;2.00;;;0.80;;
57389;SDS011;43217;52.694;6.214;2022-09-27T08:28:24;2.42;;;0.73;;
57389;SDS011;43217;52.694;6.214;2022-09-27T08:30:51;1.90;;;0.68;;
57389;SDS011;43217;52.694;6.214;2022-09-27T08:33:17;0.75;;;0.50;;
57389;SDS011;43217;52.694;6.214;2022-09-27T08:35:43;2.22;;;0.80;;
57389;SDS011;43217;52.694;6.214;2022-09-27T08:38:09;1.05;;;0.57;;
57389;SDS011;43217;52.694;6.214;2022-09-27T08:46:12;1.33;;;0.47;;
57389;SDS011;43217;52.694;6.214;2022-09-27T08:49:08;1.60;;;0.52;;
57389;SDS011;43217;52.694;6.214;2022-09-27T08:51:37;0.50;;;0.50;;
57389;SDS011;43217;52.694;6.214;2022-09-27T08:54:06;1.48;;;0.45;;
57389;SDS011;43217;52.694;6.214;2022-09-27T08:56:38;2.83;;;0.93;;
57389;SDS011;43217;52.694;6.214;2022-09-27T08:59:11;2.05;;;0.93;;
57389;SDS011;43217;52.694;6.214;2022-09-27T09:01:57;3.00;;;0.80;;
57389;SDS011;43217;52.694;6.214;2022-09-27T09:04:24;2.72;;;1.08;;
57389;SDS011;43217;52.694;6.214;2022-09-27T09:07:41;2.55;;;0.70;;
57389;SDS011;43217;52.694;6.214;2022-09-27T09:09:54;1.95;;;0.30;;
57389;SDS011;43217;52.694;6.214;2022-09-27T09:12:32;0.68;;;0.32;;
57389;SDS011;43217;52.694;6.214;2022-09-27T09:18:22;0.73;;;0.30;;
57389;SDS011;43217;52.694;6.214;2022-09-27T09:32:44;2.13;;;0.80;;
57389;SDS011;43217;52.694;6.214;2022-09-27T09:35:38;2.15;;;0.52;;
57389;SDS011;43217;52.694;6.214;2022-09-27T09:38:22;1.02;;;0.40;;
57389;SDS011;43217;52.694;6.214;2022-09-27T09:41:03;1.45;;;0.50;;
57389;SDS011;43217;52.694;6.214;2022-09-27T09:43:44;1.20;;;0.50;;
57389;SDS011;43217;52.694;6.214;2022-09-27T09:46:22;2.53;;;1.10;;
57389;SDS011;43217;52.694;6.214;2022-09-27T09:48:56;2.72;;;0.70;;
57389;SDS011;43217;52.694;6.214;2022-09-27T09:51:28;3.00;;;1.00;;
57389;SDS011;43217;52.694;6.214;2022-09-27T09:54:05;3.15;;;0.70;;
57389;SDS011;43217;52.694;6.214;2022-09-27T09:56:44;2.08;;;0.63;;
57389;SDS011;43217;52.694;6.214;2022-09-27T10:01:42;1.48;;;0.38;;
57389;SDS011;43217;52.694;6.214;2022-09-27T10:04:11;1.33;;;0.30;;
57389;SDS011;43217;52.694;6.214;2022-09-27T10:06:47;2.90;;;0.65;;
57389;SDS011;43217;52.694;6.214;2022-09-27T10:09:14;2.42;;;0.47;;
57389;SDS011;43217;52.694;6.214;2022-09-27T10:11:43;0.60;;;0.30;;
57389;SDS011;43217;52.694;6.214;2022-09-27T10:14:10;1.40;;;0.30;;
57389;SDS011;43217;52.694;6.214;2022-09-27T10:16:38;1.10;;;0.40;;
57389;SDS011;43217;52.694;6.214;2022-09-27T10:19:13;0.90;;;0.40;;
57389;SDS011;43217;52.694;6.214;2022-09-27T10:21:41;2.53;;;0.60;;
57389;SDS011;43217;52.694;6.214;2022-09-27T10:24:16;1.88;;;0.63;;
57389;SDS011;43217;52.694;6.214;2022-09-27T10:26:44;1.80;;;0.43;;
57389;SDS011;43217;52.694;6.214;2022-09-27T10:29:15;3.42;;;0.70;;
57389;SDS011;43217;52.694;6.214;2022-09-27T10:31:44;2.42;;;0.60;;
57389;SDS011;43217;52.694;6.214;2022-09-27T10:39:28;0.98;;;0.40;;
57389;SDS011;43217;52.694;6.214;2022-09-27T10:41:54;1.55;;;0.20;;
57389;SDS011;43217;52.694;6.214;2022-09-27T10:44:24;0.90;;;0.60;;
57389;SDS011;43217;52.694;6.214;2022-09-27T10:47:10;3.30;;;0.30;;
57389;SDS011;43217;52.694;6.214;2022-09-27T10:49:43;0.30;;;0.30;;
57389;SDS011;43217;52.694;6.214;2022-09-27T10:52:16;1.40;;;0.30;;
57389;SDS011;43217;52.694;6.214;2022-09-27T10:54:54;1.17;;;0.25;;
57389;SDS011;43217;52.694;6.214;2022-09-27T10:57:22;0.20;;;0.17;;
57389;SDS011;43217;52.694;6.214;2022-09-27T10:59:54;0.50;;;0.30;;
57389;SDS011;43217;52.694;6.214;2022-09-27T11:02:33;0.90;;;0.20;;
57389;SDS011;43217;52.694;6.214;2022-09-27T11:05:11;0.65;;;0.20;;
57389;SDS011;43217;52.694;6.214;2022-09-27T11:07:56;1.05;;;0.30;;
57389;SDS011;43217;52.694;6.214;2022-09-27T11:10:34;0.68;;;0.30;;
57389;SDS011;43217;52.694;6.214;2022-09-27T11:15:57;1.33;;;0.40;;
57389;SDS011;43217;52.694;6.214;2022-09-27T11:19:01;1.20;;;0.80;;
57389;SDS011;43217;52.694;6.214;2022-09-27T11:30:15;2.73;;;0.80;;
57389;SDS011;43217;52.694;6.214;2022-09-27T11:32:48;2.17;;;0.50;;
57389;SDS011;43217;52.694;6.214;2022-09-27T11:35:36;1.08;;;0.70;;
57389;SDS011;43217;52.694;6.214;2022-09-27T11:43:46;3.17;;;0.70;;
57389;SDS011;43217;52.694;6.214;2022-09-27T11:46:33;3.15;;;0.75;;
57389;SDS011;43217;52.694;6.214;2022-09-27T11:49:22;1.35;;;0.52;;
57389;SDS011;43217;52.694;6.214;2022-09-27T11:52:01;3.15;;;0.80;;
57389;SDS011;43217;52.694;6.214;2022-09-27T12:05:46;2.60;;;0.60;;
57389;SDS011;43217;52.694;6.214;2022-09-27T12:11:24;1.33;;;0.77;;
57389;SDS011;43217;52.694;6.214;2022-09-27T12:13:58;1.85;;;0.80;;
57389;SDS011;43217;52.694;6.214;2022-09-27T12:16:26;1.65;;;0.40;;
57389;SDS011;43217;52.694;6.214;2022-09-27T12:18:54;1.33;;;0.75;;
57389;SDS011;43217;52.694;6.214;2022-09-27T12:21:25;3.20;;;0.70;;
57389;SDS011;43217;52.694;6.214;2022-09-27T12:23:54;1.30;;;0.90;;
57389;SDS011;43217;52.694;6.214;2022-09-27T12:26:41;2.10;;;0.60;;
57389;SDS011;43217;52.694;6.214;2022-09-27T12:29:16;3.20;;;0.77;;
57389;SDS011;43217;52.694;6.214;2022-09-27T12:32:06;2.25;;;0.60;;
57389;SDS011;43217;52.694;6.214;2022-09-27T12:34:55;1.45;;;0.60;;
57389;SDS011;43217;52.694;6.214;2022-09-27T12:40:25;3.05;;;1.23;;
57389;SDS011;43217;52.694;6.214;2022-09-27T12:48:26;2.22;;;0.50;;
57389;SDS011;43217;52.694;6.214;2022-09-27T12:51:13;3.08;;;0.90;;
57389;SDS011;43217;52.694;6.214;2022-09-27T12:56:48;4.57;;;0.95;;
57389;SDS011;43217;52.694;6.214;2022-09-27T12:59:51;2.25;;;1.25;;
57389;SDS011;43217;52.694;6.214;2022-09-27T13:13:28;1.33;;;0.50;;
57389;SDS011;43217;52.694;6.214;2022-09-27T13:15:57;1.67;;;0.73;;
57389;SDS011;43217;52.694;6.214;2022-09-27T13:20:59;1.98;;;1.00;;
57389;SDS011;43217;52.694;6.214;2022-09-27T13:29:19;0.93;;;0.93;;
57389;SDS011;43217;52.694;6.214;2022-09-27T13:45:30;0.75;;;0.30;;
57389;SDS011;43217;52.694;6.214;2022-09-27T13:48:00;1.63;;;0.40;;
57389;SDS011;43217;52.694;6.214;2022-09-27T13:50:38;3.30;;;1.10;;
57389;SDS011;43217;52.694;6.214;2022-09-27T13:53:27;5.07;;;1.13;;
57389;SDS011;43217;52.694;6.214;2022-09-27T13:56:04;1.40;;;0.93;;
57389;SDS011;43217;52.694;6.214;2022-09-27T14:01:22;4.30;;;0.80;;
57389;SDS011;43217;52.694;6.214;2022-09-27T14:03:50;1.75;;;0.95;;
57389;SDS011;43217;52.694;6.214;2022-09-27T14:06:26;2.80;;;1.05;;
57389;SDS011;43217;52.694;6.214;2022-09-27T14:08:56;2.08;;;1.08;;
57389;SDS011;43217;52.694;6.214;2022-09-27T14:11:27;1.75;;;0.90;;
57389;SDS011;43217;52.694;6.214;2022-09-27T14:14:18;1.88;;;0.75;;
57389;SDS011;43217;52.694;6.214;2022-09-27T14:16:47;2.83;;;0.98;;
57389;SDS011;43217;52.694;6.214;2022-09-27T14:19:22;2.95;;;1.27;;
57389;SDS011;43217;52.694;6.214;2022-09-27T14:21:53;1.73;;;1.00;;
57389;SDS011;43217;52.694;6.214;2022-09-27T14:30:27;1.40;;;0.90;;
57389;SDS011;43217;52.694;6.214;2022-09-27T14:32:47;5.65;;;1.33;;
57389;SDS011;43217;52.694;6.214;2022-09-27T14:35:25;5.53;;;1.20;;
57389;SDS011;43217;52.694;6.214;2022-09-27T14:38:12;3.38;;;1.23;;
57389;SDS011;43217;52.694;6.214;2022-09-27T14:40:53;2.35;;;1.00;;
57389;SDS011;43217;52.694;6.214;2022-09-27T14:43:24;1.98;;;0.80;;
57389;SDS011;43217;52.694;6.214;2022-09-27T14:45:51;2.17;;;1.00;;
57389;SDS011;43217;52.694;6.214;2022-09-27T14:51:00;2.53;;;0.90;;
57389;SDS011;43217;52.694;6.214;2022-09-27T14:54:17;2.55;;;0.82;;
57389;SDS011;43217;52.694;6.214;2022-09-27T14:56:26;1.73;;;0.75;;
57389;SDS011;43217;52.694;6.214;2022-09-27T15:01:59;5.90;;;1.58;;
57389;SDS011;43217;52.694;6.214;2022-09-27T15:04:29;6.93;;;1.48;;
57389;SDS011;43217;52.694;6.214;2022-09-27T15:06:56;2.13;;;0.95;;
57389;SDS011;43217;52.694;6.214;2022-09-27T15:09:23;1.85;;;0.75;;
57389;SDS011;43217;52.694;6.214;2022-09-27T15:11:57;1.52;;;1.20;;
57389;SDS011;43217;52.694;6.214;2022-09-27T15:14:29;24.38;;;4.38;;
57389;SDS011;43217;52.694;6.214;2022-09-27T15:16:57;2.33;;;0.93;;
57389;SDS011;43217;52.694;6.214;2022-09-27T15:19:29;1.98;;;1.00;;
57389;SDS011;43217;52.694;6.214;2022-09-27T15:21:55;2.58;;;0.98;;
57389;SDS011;43217;52.694;6.214;2022-09-27T15:27:27;13.63;;;2.28;;
57389;SDS011;43217;52.694;6.214;2022-09-27T15:29:54;5.40;;;2.17;;
57389;SDS011;43217;52.694;6.214;2022-09-27T15:32:22;1.92;;;0.90;;
57389;SDS011;43217;52.694;6.214;2022-09-27T15:34:50;2.40;;;0.80;;
57389;SDS011;43217;52.694;6.214;2022-09-27T15:37:50;3.28;;;1.00;;
57389;SDS011;43217;52.694;6.214;2022-09-27T15:42:58;3.25;;;1.42;;
57389;SDS011;43217;52.694;6.214;2022-09-27T15:45:33;2.03;;;0.80;;
57389;SDS011;43217;52.694;6.214;2022-09-27T15:48:13;2.20;;;0.95;;
57389;SDS011;43217;52.694;6.214;2022-09-27T15:50:39;1.63;;;0.75;;
57389;SDS011;43217;52.694;6.214;2022-09-27T15:53:06;2.00;;;0.90;;
57389;SDS011;43217;52.694;6.214;2022-09-27T15:55:34;2.53;;;1.05;;
57389;SDS011;43217;52.694;6.214;2022-09-27T15:58:04;1.48;;;0.70;;
57389;SDS011;43217;52.694;6.214;2022-09-27T16:00:36;2.55;;;0.70;;
57389;SDS011;43217;52.694;6.214;2022-09-27T16:03:01;1.58;;;0.88;;
57389;SDS011;43217;52.694;6.214;2022-09-27T16:05:27;1.45;;;1.20;;
57389;SDS011;43217;52.694;6.214;2022-09-27T16:07:54;1.55;;;0.93;;
57389;SDS011;43217;52.694;6.214;2022-09-27T16:10:23;1.60;;;0.80;;
57389;SDS011;43217;52.694;6.214;2022-09-27T16:13:02;2.83;;;1.23;;
57389;SDS011;43217;52.694;6.214;2022-09-27T16:15:28;2.60;;;1.38;;
57389;SDS011;43217;52.694;6.214;2022-09-27T16:17:54;1.58;;;1.02;;
57389;SDS011;43217;52.694;6.214;2022-09-27T16:20:22;1.40;;;0.95;;
57389;SDS011;43217;52.694;6.214;2022-09-27T16:22:51;3.05;;;1.10;;
57389;SDS011;43217;52.694;6.214;2022-09-27T16:25:19;1.77;;;1.00;;
57389;SDS011;43217;52.694;6.214;2022-09-27T16:27:46;0.88;;;0.75;;
57389;SDS011;43217;52.694;6.214;2022-09-27T16:30:12;2.45;;;0.80;;
57389;SDS011;43217;52.694;6.214;2022-09-27T16:35:17;4.63;;;0.70;;
57389;SDS011;43217;52.694;6.214;2022-09-27T16:37:44;1.27;;;0.70;;
57389;SDS011;43217;52.694;6.214;2022-09-27T16:40:10;2.28;;;1.02;;
57389;SDS011;43217;52.694;6.214;2022-09-27T16:45:03;2.10;;;1.27;;
57389;SDS011;43217;52.694;6.214;2022-09-27T16:47:30;5.73;;;4.53;;
57389;SDS011;43217;52.694;6.214;2022-09-27T16:49:56;9.18;;;5.57;;
57389;SDS011;43217;52.694;6.214;2022-09-27T16:52:40;2.35;;;2.03;;
57389;SDS011;43217;52.694;6.214;2022-09-27T16:55:07;1.35;;;1.25;;
57389;SDS011;43217;52.694;6.214;2022-09-27T16:57:35;2.70;;;1.58;;
57389;SDS011;43217;52.694;6.214;2022-09-27T17:00:03;2.17;;;1.35;;
57389;SDS011;43217;52.694;6.214;2022-09-27T17:05:00;3.92;;;1.90;;
57389;SDS011;43217;52.694;6.214;2022-09-27T17:07:26;2.60;;;2.33;;
57389;SDS011;43217;52.694;6.214;2022-09-27T17:09:51;2.33;;;1.70;;
57389;SDS011;43217;52.694;6.214;2022-09-27T17:12:17;3.70;;;2.60;;
57389;SDS011;43217;52.694;6.214;2022-09-27T17:14:43;3.08;;;2.45;;
57389;SDS011;43217;52.694;6.214;2022-09-27T17:17:08;6.38;;;5.78;;
57389;SDS011;43217;52.694;6.214;2022-09-27T17:19:34;2.78;;;2.35;;
57389;SDS011;43217;52.694;6.214;2022-09-27T17:22:02;3.80;;;3.00;;
57389;SDS011;43217;52.694;6.214;2022-09-27T17:24:27;2.40;;;2.20;;
57389;SDS011;43217;52.694;6.214;2022-09-27T17:26:53;1.73;;;1.60;;
57389;SDS011;43217;52.694;6.214;2022-09-27T17:29:19;2.55;;;2.35;;
57389;SDS011;43217;52.694;6.214;2022-09-27T17:31:45;1.63;;;1.30;;
57389;SDS011;43217;52.694;6.214;2022-09-27T17:34:11;2.85;;;1.98;;
57389;SDS011;43217;52.694;6.214;2022-09-27T17:36:41;2.67;;;2.38;;
57389;SDS011;43217;52.694;6.214;2022-09-27T17:39:12;3.80;;;2.95;;
57389;SDS011;43217;52.694;6.214;2022-09-27T17:41:39;3.40;;;3.17;;
57389;SDS011;43217;52.694;6.214;2022-09-27T17:44:04;3.58;;;2.53;;
57389;SDS011;43217;52.694;6.214;2022-09-27T17:46:32;2.17;;;1.98;;
57389;SDS011;43217;52.694;6.214;2022-09-27T17:51:46;2.72;;;2.53;;
57389;SDS011;43217;52.694;6.214;2022-09-27T17:54:13;3.88;;;2.38;;
57389;SDS011;43217;52.694;6.214;2022-09-27T17:56:41;3.92;;;3.05;;
57389;SDS011;43217;52.694;6.214;2022-09-27T17:59:08;2.70;;;2.30;;
57389;SDS011;43217;52.694;6.214;2022-09-27T18:01:34;4.15;;;1.83;;
57389;SDS011;43217;52.694;6.214;2022-09-27T18:04:04;4.30;;;3.22;;
57389;SDS011;43217;52.694;6.214;2022-09-27T18:06:35;4.85;;;4.10;;
57389;SDS011;43217;52.694;6.214;2022-09-27T18:09:04;5.80;;;4.30;;
57389;SDS011;43217;52.694;6.214;2022-09-27T18:11:32;3.15;;;2.40;;
57389;SDS011;43217;52.694;6.214;2022-09-27T18:13:58;3.67;;;2.33;;
57389;SDS011;43217;52.694;6.214;2022-09-27T18:16:25;6.70;;;5.95;;
57389;SDS011;43217;52.694;6.214;2022-09-27T18:18:59;18.20;;;16.70;;